sensor_id;sensor_type;location;lat;lon;timestamp;P1;durP1;ratioP1;P2;durP2;ratioP2
52530;SDS011;38441;52.894;6.040;2023-04-03T00:01:15;1.05;;;0.60;;
52530;SDS011;38441;52.894;6.040;2023-04-03T00:03:41;1.38;;;0.50;;
52530;SDS011;38441;52.894;6.040;2023-04-03T00:06:08;1.95;;;0.93;;
52530;SDS011;38441;52.894;6.040;2023-04-03T00:08:35;2.50;;;0.57;;
52530;SDS011;38441;52.894;6.040;2023-04-03T00:11:01;2.47;;;0.60;;
52530;SDS011;38441;52.894;6.040;2023-04-03T00:13:27;1.83;;;0.40;;
52530;SDS011;38441;52.894;6.040;2023-04-03T00:15:53;1.63;;;0.47;;
52530;SDS011;38441;52.894;6.040;2023-04-03T00:18:19;2.25;;;0.40;;
52530;SDS011;38441;52.894;6.040;2023-04-03T00:20:45;2.55;;;0.73;;
52530;SDS011;38441;52.894;6.040;2023-04-03T00:23:11;2.13;;;0.50;;
52530;SDS011;38441;52.894;6.040;2023-04-03T00:25:37;4.57;;;0.50;;
52530;SDS011;38441;52.894;6.040;2023-04-03T00:28:04;1.27;;;0.60;;
52530;SDS011;38441;52.894;6.040;2023-04-03T00:30:30;3.10;;;0.52;;
52530;SDS011;38441;52.894;6.040;2023-04-03T00:32:56;1.23;;;0.32;;
52530;SDS011;38441;52.894;6.040;2023-04-03T00:35:23;0.65;;;0.32;;
52530;SDS011;38441;52.894;6.040;2023-04-03T00:37:53;2.97;;;0.50;;
52530;SDS011;38441;52.894;6.040;2023-04-03T00:40:20;2.77;;;0.50;;
52530;SDS011;38441;52.894;6.040;2023-04-03T00:42:47;1.08;;;0.40;;
52530;SDS011;38441;52.894;6.040;2023-04-03T00:45:24;2.70;;;0.52;;
52530;SDS011;38441;52.894;6.040;2023-04-03T00:47:55;1.77;;;0.50;;
52530;SDS011;38441;52.894;6.040;2023-04-03T00:50:24;3.83;;;0.85;;
52530;SDS011;38441;52.894;6.040;2023-04-03T00:52:50;1.75;;;0.45;;
52530;SDS011;38441;52.894;6.040;2023-04-03T00:55:17;2.53;;;0.40;;
52530;SDS011;38441;52.894;6.040;2023-04-03T00:57:43;4.40;;;0.52;;
52530;SDS011;38441;52.894;6.040;2023-04-03T01:00:11;2.20;;;0.55;;
52530;SDS011;38441;52.894;6.040;2023-04-03T01:02:39;1.95;;;0.40;;
52530;SDS011;38441;52.894;6.040;2023-04-03T01:05:08;1.35;;;0.40;;
52530;SDS011;38441;52.894;6.040;2023-04-03T01:07:34;3.10;;;0.82;;
52530;SDS011;38441;52.894;6.040;2023-04-03T01:10:03;2.03;;;0.50;;
52530;SDS011;38441;52.894;6.040;2023-04-03T01:12:35;2.05;;;0.73;;
52530;SDS011;38441;52.894;6.040;2023-04-03T01:15:11;1.40;;;0.38;;
52530;SDS011;38441;52.894;6.040;2023-04-03T01:17:51;2.35;;;0.60;;
52530;SDS011;38441;52.894;6.040;2023-04-03T01:22:59;1.52;;;0.50;;
52530;SDS011;38441;52.894;6.040;2023-04-03T01:25:30;2.72;;;0.50;;
52530;SDS011;38441;52.894;6.040;2023-04-03T01:27:56;3.63;;;0.60;;
52530;SDS011;38441;52.894;6.040;2023-04-03T01:30:24;1.35;;;0.45;;
52530;SDS011;38441;52.894;6.040;2023-04-03T01:32:55;1.23;;;0.40;;
52530;SDS011;38441;52.894;6.040;2023-04-03T01:35:21;1.17;;;0.57;;
52530;SDS011;38441;52.894;6.040;2023-04-03T01:37:47;2.47;;;0.70;;
52530;SDS011;38441;52.894;6.040;2023-04-03T01:40:13;1.60;;;0.43;;
52530;SDS011;38441;52.894;6.040;2023-04-03T01:42:39;2.20;;;0.57;;
52530;SDS011;38441;52.894;6.040;2023-04-03T01:45:05;2.25;;;0.63;;
52530;SDS011;38441;52.894;6.040;2023-04-03T01:47:31;1.65;;;0.30;;
52530;SDS011;38441;52.894;6.040;2023-04-03T01:49:57;2.05;;;0.65;;
52530;SDS011;38441;52.894;6.040;2023-04-03T01:52:23;1.38;;;0.40;;
52530;SDS011;38441;52.894;6.040;2023-04-03T01:54:49;2.10;;;0.50;;
52530;SDS011;38441;52.894;6.040;2023-04-03T01:57:15;4.78;;;0.70;;
52530;SDS011;38441;52.894;6.040;2023-04-03T01:59:42;1.35;;;0.73;;
52530;SDS011;38441;52.894;6.040;2023-04-03T02:02:08;1.38;;;0.55;;
52530;SDS011;38441;52.894;6.040;2023-04-03T02:04:34;2.42;;;0.68;;
52530;SDS011;38441;52.894;6.040;2023-04-03T02:07:00;3.95;;;0.75;;
52530;SDS011;38441;52.894;6.040;2023-04-03T02:09:26;2.92;;;0.88;;
52530;SDS011;38441;52.894;6.040;2023-04-03T02:11:52;2.45;;;0.80;;
52530;SDS011;38441;52.894;6.040;2023-04-03T02:14:18;1.98;;;0.73;;
52530;SDS011;38441;52.894;6.040;2023-04-03T02:16:45;1.45;;;0.50;;
52530;SDS011;38441;52.894;6.040;2023-04-03T02:19:11;3.47;;;1.00;;
52530;SDS011;38441;52.894;6.040;2023-04-03T02:21:37;1.35;;;0.50;;
52530;SDS011;38441;52.894;6.040;2023-04-03T02:24:03;4.40;;;0.75;;
52530;SDS011;38441;52.894;6.040;2023-04-03T02:26:29;3.35;;;0.70;;
52530;SDS011;38441;52.894;6.040;2023-04-03T02:28:55;3.90;;;0.60;;
52530;SDS011;38441;52.894;6.040;2023-04-03T02:31:21;1.35;;;0.57;;
52530;SDS011;38441;52.894;6.040;2023-04-03T02:33:47;3.17;;;0.60;;
52530;SDS011;38441;52.894;6.040;2023-04-03T02:36:13;1.30;;;0.50;;
52530;SDS011;38441;52.894;6.040;2023-04-03T02:38:39;3.00;;;0.57;;
52530;SDS011;38441;52.894;6.040;2023-04-03T02:41:06;3.90;;;0.88;;
52530;SDS011;38441;52.894;6.040;2023-04-03T02:43:33;2.25;;;0.60;;
52530;SDS011;38441;52.894;6.040;2023-04-03T02:45:59;2.70;;;0.75;;
52530;SDS011;38441;52.894;6.040;2023-04-03T02:48:25;2.80;;;0.80;;
52530;SDS011;38441;52.894;6.040;2023-04-03T02:50:51;2.92;;;0.88;;
52530;SDS011;38441;52.894;6.040;2023-04-03T02:53:18;2.67;;;0.60;;
52530;SDS011;38441;52.894;6.040;2023-04-03T02:55:44;2.92;;;1.02;;
52530;SDS011;38441;52.894;6.040;2023-04-03T02:58:10;2.40;;;0.82;;
52530;SDS011;38441;52.894;6.040;2023-04-03T03:00:37;4.10;;;0.88;;
52530;SDS011;38441;52.894;6.040;2023-04-03T03:03:03;3.70;;;0.80;;
52530;SDS011;38441;52.894;6.040;2023-04-03T03:05:29;2.40;;;0.82;;
52530;SDS011;38441;52.894;6.040;2023-04-03T03:07:55;3.80;;;1.05;;
52530;SDS011;38441;52.894;6.040;2023-04-03T03:10:21;2.63;;;0.60;;
52530;SDS011;38441;52.894;6.040;2023-04-03T03:12:47;2.13;;;0.52;;
52530;SDS011;38441;52.894;6.040;2023-04-03T03:15:14;2.05;;;0.65;;
52530;SDS011;38441;52.894;6.040;2023-04-03T03:17:41;2.17;;;0.73;;
52530;SDS011;38441;52.894;6.040;2023-04-03T03:20:07;2.83;;;0.82;;
52530;SDS011;38441;52.894;6.040;2023-04-03T03:22:33;3.38;;;0.80;;
52530;SDS011;38441;52.894;6.040;2023-04-03T03:25:00;1.48;;;0.60;;
52530;SDS011;38441;52.894;6.040;2023-04-03T03:27:27;2.15;;;0.60;;
52530;SDS011;38441;52.894;6.040;2023-04-03T03:29:53;4.15;;;0.93;;
52530;SDS011;38441;52.894;6.040;2023-04-03T03:32:19;3.67;;;0.80;;
52530;SDS011;38441;52.894;6.040;2023-04-03T03:34:45;2.70;;;0.75;;
52530;SDS011;38441;52.894;6.040;2023-04-03T03:37:11;3.95;;;0.80;;
52530;SDS011;38441;52.894;6.040;2023-04-03T03:39:37;3.58;;;0.90;;
52530;SDS011;38441;52.894;6.040;2023-04-03T03:42:03;5.35;;;0.75;;
52530;SDS011;38441;52.894;6.040;2023-04-03T03:44:29;2.35;;;0.75;;
52530;SDS011;38441;52.894;6.040;2023-04-03T03:46:55;3.33;;;0.95;;
52530;SDS011;38441;52.894;6.040;2023-04-03T03:49:21;2.70;;;0.90;;
52530;SDS011;38441;52.894;6.040;2023-04-03T03:51:47;2.25;;;0.77;;
52530;SDS011;38441;52.894;6.040;2023-04-03T03:54:13;2.28;;;0.80;;
52530;SDS011;38441;52.894;6.040;2023-04-03T03:56:39;3.25;;;0.77;;
52530;SDS011;38441;52.894;6.040;2023-04-03T03:59:05;2.33;;;0.80;;
52530;SDS011;38441;52.894;6.040;2023-04-03T04:01:31;2.95;;;0.73;;
52530;SDS011;38441;52.894;6.040;2023-04-03T04:03:58;3.45;;;1.00;;
52530;SDS011;38441;52.894;6.040;2023-04-03T04:06:24;2.30;;;0.85;;
52530;SDS011;38441;52.894;6.040;2023-04-03T04:08:50;2.10;;;0.98;;
52530;SDS011;38441;52.894;6.040;2023-04-03T04:11:16;3.13;;;0.70;;
52530;SDS011;38441;52.894;6.040;2023-04-03T04:13:42;3.47;;;0.88;;
52530;SDS011;38441;52.894;6.040;2023-04-03T04:16:08;1.83;;;0.65;;
52530;SDS011;38441;52.894;6.040;2023-04-03T04:18:34;3.72;;;0.82;;
52530;SDS011;38441;52.894;6.040;2023-04-03T04:21:00;3.28;;;1.00;;
52530;SDS011;38441;52.894;6.040;2023-04-03T04:23:26;2.90;;;0.98;;
52530;SDS011;38441;52.894;6.040;2023-04-03T04:25:52;6.97;;;1.00;;
52530;SDS011;38441;52.894;6.040;2023-04-03T04:28:18;3.28;;;1.00;;
52530;SDS011;38441;52.894;6.040;2023-04-03T04:30:44;2.95;;;0.80;;
52530;SDS011;38441;52.894;6.040;2023-04-03T04:33:10;2.45;;;0.85;;
52530;SDS011;38441;52.894;6.040;2023-04-03T04:35:36;4.28;;;1.00;;
52530;SDS011;38441;52.894;6.040;2023-04-03T04:38:03;4.80;;;1.20;;
52530;SDS011;38441;52.894;6.040;2023-04-03T04:40:29;2.65;;;0.82;;
52530;SDS011;38441;52.894;6.040;2023-04-03T04:42:55;3.63;;;1.00;;
52530;SDS011;38441;52.894;6.040;2023-04-03T04:45:21;4.32;;;1.05;;
52530;SDS011;38441;52.894;6.040;2023-04-03T04:47:47;5.80;;;0.80;;
52530;SDS011;38441;52.894;6.040;2023-04-03T04:50:16;3.15;;;0.90;;
52530;SDS011;38441;52.894;6.040;2023-04-03T04:52:42;2.70;;;0.90;;
52530;SDS011;38441;52.894;6.040;2023-04-03T04:55:08;3.60;;;1.10;;
52530;SDS011;38441;52.894;6.040;2023-04-03T04:57:34;3.45;;;0.90;;
52530;SDS011;38441;52.894;6.040;2023-04-03T05:00:00;4.35;;;1.20;;
52530;SDS011;38441;52.894;6.040;2023-04-03T05:02:26;3.38;;;1.00;;
52530;SDS011;38441;52.894;6.040;2023-04-03T05:04:52;3.33;;;1.00;;
52530;SDS011;38441;52.894;6.040;2023-04-03T05:07:18;3.03;;;1.15;;
52530;SDS011;38441;52.894;6.040;2023-04-03T05:09:44;3.67;;;1.10;;
52530;SDS011;38441;52.894;6.040;2023-04-03T05:12:10;5.03;;;0.80;;
52530;SDS011;38441;52.894;6.040;2023-04-03T05:14:36;3.85;;;1.23;;
52530;SDS011;38441;52.894;6.040;2023-04-03T05:17:02;4.30;;;1.08;;
52530;SDS011;38441;52.894;6.040;2023-04-03T05:19:28;3.97;;;1.20;;
52530;SDS011;38441;52.894;6.040;2023-04-03T05:21:54;3.38;;;1.50;;
52530;SDS011;38441;52.894;6.040;2023-04-03T05:24:20;4.45;;;1.05;;
52530;SDS011;38441;52.894;6.040;2023-04-03T05:26:46;4.15;;;1.20;;
52530;SDS011;38441;52.894;6.040;2023-04-03T05:29:12;2.83;;;1.10;;
52530;SDS011;38441;52.894;6.040;2023-04-03T05:31:38;4.47;;;1.00;;
52530;SDS011;38441;52.894;6.040;2023-04-03T05:34:04;4.45;;;1.33;;
52530;SDS011;38441;52.894;6.040;2023-04-03T05:36:30;5.97;;;1.15;;
52530;SDS011;38441;52.894;6.040;2023-04-03T05:38:56;7.53;;;1.48;;
52530;SDS011;38441;52.894;6.040;2023-04-03T05:41:23;5.20;;;1.40;;
52530;SDS011;38441;52.894;6.040;2023-04-03T05:43:49;4.25;;;1.30;;
52530;SDS011;38441;52.894;6.040;2023-04-03T05:46:16;2.50;;;1.33;;
52530;SDS011;38441;52.894;6.040;2023-04-03T05:48:42;4.38;;;1.55;;
52530;SDS011;38441;52.894;6.040;2023-04-03T05:51:13;5.18;;;1.10;;
52530;SDS011;38441;52.894;6.040;2023-04-03T05:53:40;5.05;;;1.77;;
52530;SDS011;38441;52.894;6.040;2023-04-03T05:56:06;4.70;;;1.60;;
52530;SDS011;38441;52.894;6.040;2023-04-03T05:58:32;4.53;;;1.38;;
52530;SDS011;38441;52.894;6.040;2023-04-03T06:00:58;4.40;;;1.10;;
52530;SDS011;38441;52.894;6.040;2023-04-03T06:03:24;3.70;;;1.30;;
52530;SDS011;38441;52.894;6.040;2023-04-03T06:05:51;11.93;;;1.65;;
52530;SDS011;38441;52.894;6.040;2023-04-03T06:08:17;5.35;;;1.50;;
52530;SDS011;38441;52.894;6.040;2023-04-03T06:10:43;5.82;;;1.77;;
52530;SDS011;38441;52.894;6.040;2023-04-03T06:13:09;6.93;;;2.85;;
52530;SDS011;38441;52.894;6.040;2023-04-03T06:15:36;9.65;;;3.70;;
52530;SDS011;38441;52.894;6.040;2023-04-03T06:18:03;9.20;;;3.15;;
52530;SDS011;38441;52.894;6.040;2023-04-03T06:20:29;10.40;;;4.28;;
52530;SDS011;38441;52.894;6.040;2023-04-03T06:22:56;10.20;;;4.32;;
52530;SDS011;38441;52.894;6.040;2023-04-03T06:25:22;8.40;;;4.10;;
52530;SDS011;38441;52.894;6.040;2023-04-03T06:27:48;3.95;;;1.90;;
52530;SDS011;38441;52.894;6.040;2023-04-03T06:30:14;4.40;;;1.63;;
52530;SDS011;38441;52.894;6.040;2023-04-03T06:32:40;3.80;;;1.48;;
52530;SDS011;38441;52.894;6.040;2023-04-03T06:35:08;3.80;;;1.15;;
52530;SDS011;38441;52.894;6.040;2023-04-03T06:37:34;3.97;;;1.98;;
52530;SDS011;38441;52.894;6.040;2023-04-03T06:40:00;5.63;;;1.50;;
52530;SDS011;38441;52.894;6.040;2023-04-03T06:42:27;5.82;;;1.40;;
52530;SDS011;38441;52.894;6.040;2023-04-03T06:44:53;5.93;;;2.35;;
52530;SDS011;38441;52.894;6.040;2023-04-03T06:47:19;7.07;;;1.50;;
52530;SDS011;38441;52.894;6.040;2023-04-03T06:49:45;6.32;;;1.48;;
52530;SDS011;38441;52.894;6.040;2023-04-03T06:52:11;3.30;;;1.17;;
52530;SDS011;38441;52.894;6.040;2023-04-03T06:54:38;7.10;;;1.67;;
52530;SDS011;38441;52.894;6.040;2023-04-03T06:57:04;4.30;;;1.60;;
52530;SDS011;38441;52.894;6.040;2023-04-03T06:59:30;5.20;;;2.00;;
52530;SDS011;38441;52.894;6.040;2023-04-03T07:01:56;4.65;;;1.55;;
52530;SDS011;38441;52.894;6.040;2023-04-03T07:04:23;8.05;;;1.88;;
52530;SDS011;38441;52.894;6.040;2023-04-03T07:06:49;5.57;;;1.63;;
52530;SDS011;38441;52.894;6.040;2023-04-03T07:09:15;5.63;;;1.80;;
52530;SDS011;38441;52.894;6.040;2023-04-03T07:11:41;4.72;;;1.73;;
52530;SDS011;38441;52.894;6.040;2023-04-03T07:14:07;3.00;;;1.13;;
52530;SDS011;38441;52.894;6.040;2023-04-03T07:16:34;4.30;;;1.25;;
52530;SDS011;38441;52.894;6.040;2023-04-03T07:19:00;3.75;;;1.25;;
52530;SDS011;38441;52.894;6.040;2023-04-03T07:21:27;5.35;;;1.50;;
52530;SDS011;38441;52.894;6.040;2023-04-03T07:23:53;3.42;;;1.40;;
52530;SDS011;38441;52.894;6.040;2023-04-03T07:26:19;4.20;;;1.30;;
52530;SDS011;38441;52.894;6.040;2023-04-03T07:28:48;3.10;;;1.20;;
52530;SDS011;38441;52.894;6.040;2023-04-03T07:31:15;4.57;;;1.25;;
52530;SDS011;38441;52.894;6.040;2023-04-03T07:33:41;3.25;;;1.15;;
52530;SDS011;38441;52.894;6.040;2023-04-03T07:36:08;6.30;;;1.45;;
52530;SDS011;38441;52.894;6.040;2023-04-03T07:38:34;3.88;;;1.10;;
52530;SDS011;38441;52.894;6.040;2023-04-03T07:41:01;3.60;;;1.65;;
52530;SDS011;38441;52.894;6.040;2023-04-03T07:43:28;4.75;;;0.98;;
52530;SDS011;38441;52.894;6.040;2023-04-03T07:45:54;3.95;;;1.10;;
52530;SDS011;38441;52.894;6.040;2023-04-03T07:48:24;3.20;;;1.02;;
52530;SDS011;38441;52.894;6.040;2023-04-03T07:50:51;5.10;;;1.33;;
52530;SDS011;38441;52.894;6.040;2023-04-03T07:53:17;3.65;;;1.00;;
52530;SDS011;38441;52.894;6.040;2023-04-03T07:55:45;3.70;;;1.20;;
52530;SDS011;38441;52.894;6.040;2023-04-03T07:58:13;3.33;;;0.98;;
52530;SDS011;38441;52.894;6.040;2023-04-03T08:00:40;4.15;;;1.23;;
52530;SDS011;38441;52.894;6.040;2023-04-03T08:03:07;3.80;;;1.00;;
52530;SDS011;38441;52.894;6.040;2023-04-03T08:05:37;1.40;;;0.68;;
52530;SDS011;38441;52.894;6.040;2023-04-03T08:08:03;7.03;;;1.02;;
52530;SDS011;38441;52.894;6.040;2023-04-03T08:10:30;2.25;;;0.90;;
52530;SDS011;38441;52.894;6.040;2023-04-03T08:12:56;3.38;;;0.73;;
52530;SDS011;38441;52.894;6.040;2023-04-03T08:15:22;3.95;;;1.00;;
52530;SDS011;38441;52.894;6.040;2023-04-03T08:17:48;2.00;;;0.80;;
52530;SDS011;38441;52.894;6.040;2023-04-03T08:20:14;3.58;;;0.70;;
52530;SDS011;38441;52.894;6.040;2023-04-03T08:22:40;3.28;;;1.17;;
52530;SDS011;38441;52.894;6.040;2023-04-03T08:25:06;2.10;;;0.73;;
52530;SDS011;38441;52.894;6.040;2023-04-03T08:27:34;4.00;;;0.60;;
52530;SDS011;38441;52.894;6.040;2023-04-03T08:30:00;2.58;;;0.82;;
52530;SDS011;38441;52.894;6.040;2023-04-03T08:32:27;3.55;;;0.88;;
52530;SDS011;38441;52.894;6.040;2023-04-03T08:34:53;2.90;;;0.70;;
52530;SDS011;38441;52.894;6.040;2023-04-03T08:37:19;2.50;;;0.60;;
52530;SDS011;38441;52.894;6.040;2023-04-03T08:39:45;2.40;;;0.55;;
52530;SDS011;38441;52.894;6.040;2023-04-03T08:42:19;4.53;;;0.63;;
52530;SDS011;38441;52.894;6.040;2023-04-03T08:44:56;3.08;;;0.82;;
52530;SDS011;38441;52.894;6.040;2023-04-03T08:50:05;3.85;;;0.80;;
52530;SDS011;38441;52.894;6.040;2023-04-03T08:52:37;2.47;;;0.88;;
52530;SDS011;38441;52.894;6.040;2023-04-03T08:55:07;2.53;;;0.70;;
52530;SDS011;38441;52.894;6.040;2023-04-03T08:57:58;1.73;;;0.43;;
52530;SDS011;38441;52.894;6.040;2023-04-03T09:00:27;4.40;;;0.70;;
52530;SDS011;38441;52.894;6.040;2023-04-03T09:02:57;2.63;;;0.77;;
52530;SDS011;38441;52.894;6.040;2023-04-03T09:08:11;2.13;;;0.75;;
52530;SDS011;38441;52.894;6.040;2023-04-03T09:10:47;3.17;;;0.63;;
52530;SDS011;38441;52.894;6.040;2023-04-03T09:15:51;1.73;;;0.60;;
52530;SDS011;38441;52.894;6.040;2023-04-03T09:26:05;3.60;;;0.80;;
52530;SDS011;38441;52.894;6.040;2023-04-03T09:28:35;3.22;;;0.95;;
52530;SDS011;38441;52.894;6.040;2023-04-03T09:34:15;3.08;;;0.63;;
52530;SDS011;38441;52.894;6.040;2023-04-03T09:36:51;2.38;;;0.60;;
52530;SDS011;38441;52.894;6.040;2023-04-03T09:39:19;2.70;;;0.50;;
52530;SDS011;38441;52.894;6.040;2023-04-03T09:42:00;2.63;;;0.50;;
52530;SDS011;38441;52.894;6.040;2023-04-03T09:44:30;1.60;;;0.40;;
52530;SDS011;38441;52.894;6.040;2023-04-03T09:46:56;2.55;;;0.43;;
52530;SDS011;38441;52.894;6.040;2023-04-03T09:49:22;1.92;;;0.63;;
52530;SDS011;38441;52.894;6.040;2023-04-03T09:51:48;1.25;;;0.38;;
52530;SDS011;38441;52.894;6.040;2023-04-03T09:56:58;0.80;;;0.35;;
52530;SDS011;38441;52.894;6.040;2023-04-03T09:59:31;0.85;;;0.30;;
52530;SDS011;38441;52.894;6.040;2023-04-03T10:02:02;0.82;;;0.25;;
52530;SDS011;38441;52.894;6.040;2023-04-03T10:04:48;1.30;;;0.32;;
52530;SDS011;38441;52.894;6.040;2023-04-03T10:07:34;1.52;;;0.40;;
52530;SDS011;38441;52.894;6.040;2023-04-03T10:10:14;1.25;;;0.20;;
52530;SDS011;38441;52.894;6.040;2023-04-03T10:12:41;1.23;;;0.38;;
52530;SDS011;38441;52.894;6.040;2023-04-03T10:15:10;2.33;;;0.40;;
52530;SDS011;38441;52.894;6.040;2023-04-03T10:23:15;1.45;;;0.60;;
52530;SDS011;38441;52.894;6.040;2023-04-03T10:26:09;2.25;;;0.60;;
52530;SDS011;38441;52.894;6.040;2023-04-03T10:34:30;0.88;;;0.28;;
52530;SDS011;38441;52.894;6.040;2023-04-03T10:39:38;2.13;;;0.40;;
52530;SDS011;38441;52.894;6.040;2023-04-03T10:42:30;1.20;;;0.30;;
52530;SDS011;38441;52.894;6.040;2023-04-03T10:45:27;1.20;;;0.43;;
52530;SDS011;38441;52.894;6.040;2023-04-03T10:48:07;1.20;;;0.40;;
52530;SDS011;38441;52.894;6.040;2023-04-03T10:55:37;3.05;;;0.60;;
52530;SDS011;38441;52.894;6.040;2023-04-03T10:58:26;1.25;;;0.30;;
52530;SDS011;38441;52.894;6.040;2023-04-03T11:01:00;2.67;;;0.40;;
52530;SDS011;38441;52.894;6.040;2023-04-03T11:03:32;1.77;;;0.28;;
52530;SDS011;38441;52.894;6.040;2023-04-03T11:06:02;2.23;;;0.30;;
52530;SDS011;38441;52.894;6.040;2023-04-03T11:08:38;2.70;;;0.35;;
52530;SDS011;38441;52.894;6.040;2023-04-03T11:11:22;2.08;;;0.40;;
52530;SDS011;38441;52.894;6.040;2023-04-03T11:14:01;3.35;;;0.60;;
52530;SDS011;38441;52.894;6.040;2023-04-03T11:16:30;1.90;;;0.40;;
52530;SDS011;38441;52.894;6.040;2023-04-03T11:19:20;2.40;;;0.40;;
52530;SDS011;38441;52.894;6.040;2023-04-03T11:24:59;1.40;;;0.30;;
52530;SDS011;38441;52.894;6.040;2023-04-03T11:27:42;1.73;;;0.40;;
52530;SDS011;38441;52.894;6.040;2023-04-03T11:30:22;1.98;;;0.40;;
52530;SDS011;38441;52.894;6.040;2023-04-03T11:35:37;2.28;;;0.38;;
52530;SDS011;38441;52.894;6.040;2023-04-03T11:38:23;2.85;;;0.43;;
52530;SDS011;38441;52.894;6.040;2023-04-03T11:41:01;2.10;;;0.55;;
52530;SDS011;38441;52.894;6.040;2023-04-03T11:43:30;3.72;;;0.50;;
52530;SDS011;38441;52.894;6.040;2023-04-03T11:46:03;2.65;;;0.32;;
52530;SDS011;38441;52.894;6.040;2023-04-03T11:51:01;0.80;;;0.30;;
52530;SDS011;38441;52.894;6.040;2023-04-03T11:53:48;1.13;;;0.30;;
52530;SDS011;38441;52.894;6.040;2023-04-03T11:56:28;2.08;;;0.30;;
52530;SDS011;38441;52.894;6.040;2023-04-03T12:01:57;1.85;;;0.50;;
52530;SDS011;38441;52.894;6.040;2023-04-03T12:04:25;1.00;;;0.40;;
52530;SDS011;38441;52.894;6.040;2023-04-03T12:07:14;1.42;;;0.38;;
52530;SDS011;38441;52.894;6.040;2023-04-03T12:12:29;1.88;;;0.35;;
52530;SDS011;38441;52.894;6.040;2023-04-03T12:15:16;2.13;;;0.52;;
52530;SDS011;38441;52.894;6.040;2023-04-03T12:17:48;4.80;;;0.55;;
52530;SDS011;38441;52.894;6.040;2023-04-03T12:23:06;2.53;;;0.57;;
52530;SDS011;38441;52.894;6.040;2023-04-03T12:25:47;2.92;;;0.50;;
52530;SDS011;38441;52.894;6.040;2023-04-03T12:28:17;2.20;;;0.43;;
52530;SDS011;38441;52.894;6.040;2023-04-03T12:30:43;1.17;;;0.35;;
52530;SDS011;38441;52.894;6.040;2023-04-03T12:36:08;2.47;;;0.60;;
52530;SDS011;38441;52.894;6.040;2023-04-03T12:38:58;2.97;;;0.50;;
52530;SDS011;38441;52.894;6.040;2023-04-03T12:41:43;2.65;;;0.38;;
52530;SDS011;38441;52.894;6.040;2023-04-03T12:47:32;2.40;;;0.75;;
52530;SDS011;38441;52.894;6.040;2023-04-03T12:52:39;1.25;;;0.40;;
52530;SDS011;38441;52.894;6.040;2023-04-03T12:55:17;2.08;;;0.30;;
52530;SDS011;38441;52.894;6.040;2023-04-03T12:57:45;3.83;;;0.50;;
52530;SDS011;38441;52.894;6.040;2023-04-03T13:00:20;2.03;;;0.57;;
52530;SDS011;38441;52.894;6.040;2023-04-03T13:03:06;4.82;;;0.73;;
52530;SDS011;38441;52.894;6.040;2023-04-03T13:05:57;3.25;;;0.50;;
52530;SDS011;38441;52.894;6.040;2023-04-03T13:08:49;2.20;;;0.60;;
52530;SDS011;38441;52.894;6.040;2023-04-03T13:11:41;3.30;;;0.50;;
52530;SDS011;38441;52.894;6.040;2023-04-03T13:14:18;2.80;;;0.70;;
52530;SDS011;38441;52.894;6.040;2023-04-03T13:19:31;1.90;;;0.60;;
52530;SDS011;38441;52.894;6.040;2023-04-03T13:22:01;2.90;;;0.55;;
52530;SDS011;38441;52.894;6.040;2023-04-03T13:24:30;2.75;;;1.00;;
52530;SDS011;38441;52.894;6.040;2023-04-03T13:27:00;2.60;;;0.65;;
52530;SDS011;38441;52.894;6.040;2023-04-03T13:29:28;2.47;;;0.80;;
52530;SDS011;38441;52.894;6.040;2023-04-03T13:31:56;3.90;;;0.70;;
52530;SDS011;38441;52.894;6.040;2023-04-03T13:34:24;1.38;;;0.50;;
52530;SDS011;38441;52.894;6.040;2023-04-03T13:41:53;3.77;;;0.70;;
52530;SDS011;38441;52.894;6.040;2023-04-03T13:46:48;3.03;;;0.75;;
52530;SDS011;38441;52.894;6.040;2023-04-03T13:49:18;3.55;;;0.43;;
52530;SDS011;38441;52.894;6.040;2023-04-03T13:55:02;1.60;;;0.50;;
52530;SDS011;38441;52.894;6.040;2023-04-03T13:57:51;2.63;;;0.70;;
52530;SDS011;38441;52.894;6.040;2023-04-03T14:00:22;5.30;;;0.80;;
52530;SDS011;38441;52.894;6.040;2023-04-03T14:02:55;2.83;;;0.70;;
52530;SDS011;38441;52.894;6.040;2023-04-03T14:05:21;1.73;;;0.40;;
52530;SDS011;38441;52.894;6.040;2023-04-03T14:07:48;1.58;;;0.60;;
52530;SDS011;38441;52.894;6.040;2023-04-03T14:10:14;3.00;;;0.70;;
52530;SDS011;38441;52.894;6.040;2023-04-03T14:12:40;3.60;;;0.88;;
52530;SDS011;38441;52.894;6.040;2023-04-03T14:15:20;3.28;;;0.88;;
52530;SDS011;38441;52.894;6.040;2023-04-03T14:17:49;2.70;;;1.02;;
52530;SDS011;38441;52.894;6.040;2023-04-03T14:20:20;2.65;;;0.75;;
52530;SDS011;38441;52.894;6.040;2023-04-03T14:22:47;4.70;;;0.63;;
52530;SDS011;38441;52.894;6.040;2023-04-03T14:25:14;3.35;;;0.80;;
52530;SDS011;38441;52.894;6.040;2023-04-03T14:27:42;1.85;;;0.73;;
52530;SDS011;38441;52.894;6.040;2023-04-03T14:30:17;2.97;;;0.90;;
52530;SDS011;38441;52.894;6.040;2023-04-03T14:32:46;4.13;;;0.90;;
52530;SDS011;38441;52.894;6.040;2023-04-03T14:35:13;2.70;;;0.70;;
52530;SDS011;38441;52.894;6.040;2023-04-03T14:37:40;3.85;;;0.70;;
52530;SDS011;38441;52.894;6.040;2023-04-03T14:40:06;3.83;;;0.98;;
52530;SDS011;38441;52.894;6.040;2023-04-03T14:42:35;2.60;;;1.02;;
52530;SDS011;38441;52.894;6.040;2023-04-03T14:45:02;2.42;;;0.93;;
52530;SDS011;38441;52.894;6.040;2023-04-03T14:47:30;3.17;;;0.95;;
52530;SDS011;38441;52.894;6.040;2023-04-03T14:49:56;4.45;;;0.90;;
52530;SDS011;38441;52.894;6.040;2023-04-03T14:52:24;2.03;;;0.90;;
52530;SDS011;38441;52.894;6.040;2023-04-03T14:54:55;1.30;;;0.60;;
52530;SDS011;38441;52.894;6.040;2023-04-03T14:57:22;2.35;;;0.80;;
52530;SDS011;38441;52.894;6.040;2023-04-03T14:59:50;3.28;;;0.88;;
52530;SDS011;38441;52.894;6.040;2023-04-03T15:02:33;3.35;;;1.40;;
52530;SDS011;38441;52.894;6.040;2023-04-03T15:05:01;3.25;;;0.73;;
52530;SDS011;38441;52.894;6.040;2023-04-03T15:07:30;2.38;;;0.65;;
52530;SDS011;38441;52.894;6.040;2023-04-03T15:10:03;1.98;;;0.70;;
52530;SDS011;38441;52.894;6.040;2023-04-03T15:12:40;2.65;;;0.82;;
52530;SDS011;38441;52.894;6.040;2023-04-03T15:15:07;2.25;;;0.93;;
52530;SDS011;38441;52.894;6.040;2023-04-03T15:17:34;3.30;;;0.90;;
52530;SDS011;38441;52.894;6.040;2023-04-03T15:20:01;4.68;;;1.10;;
52530;SDS011;38441;52.894;6.040;2023-04-03T15:22:28;1.65;;;0.73;;
52530;SDS011;38441;52.894;6.040;2023-04-03T15:24:53;1.73;;;0.70;;
52530;SDS011;38441;52.894;6.040;2023-04-03T15:27:19;3.40;;;0.68;;
52530;SDS011;38441;52.894;6.040;2023-04-03T15:29:45;1.98;;;0.82;;
52530;SDS011;38441;52.894;6.040;2023-04-03T15:32:11;3.25;;;0.98;;
52530;SDS011;38441;52.894;6.040;2023-04-03T15:34:37;3.53;;;0.85;;
52530;SDS011;38441;52.894;6.040;2023-04-03T15:37:03;2.35;;;0.77;;
52530;SDS011;38441;52.894;6.040;2023-04-03T15:39:30;3.15;;;0.82;;
52530;SDS011;38441;52.894;6.040;2023-04-03T15:41:55;3.75;;;0.75;;
52530;SDS011;38441;52.894;6.040;2023-04-03T15:44:24;5.38;;;0.60;;
52530;SDS011;38441;52.894;6.040;2023-04-03T15:46:50;1.58;;;0.70;;
52530;SDS011;38441;52.894;6.040;2023-04-03T15:49:16;1.80;;;0.60;;
52530;SDS011;38441;52.894;6.040;2023-04-03T15:51:43;2.63;;;0.75;;
52530;SDS011;38441;52.894;6.040;2023-04-03T15:54:09;1.63;;;0.50;;
52530;SDS011;38441;52.894;6.040;2023-04-03T15:56:35;1.75;;;0.65;;
52530;SDS011;38441;52.894;6.040;2023-04-03T15:59:00;1.85;;;0.70;;
52530;SDS011;38441;52.894;6.040;2023-04-03T16:01:26;4.00;;;0.80;;
52530;SDS011;38441;52.894;6.040;2023-04-03T16:03:52;2.20;;;0.50;;
52530;SDS011;38441;52.894;6.040;2023-04-03T16:06:18;2.03;;;0.63;;
52530;SDS011;38441;52.894;6.040;2023-04-03T16:08:44;2.00;;;0.60;;
52530;SDS011;38441;52.894;6.040;2023-04-03T16:11:12;3.92;;;0.80;;
52530;SDS011;38441;52.894;6.040;2023-04-03T16:13:38;2.75;;;0.70;;
52530;SDS011;38441;52.894;6.040;2023-04-03T16:16:05;1.95;;;0.60;;
52530;SDS011;38441;52.894;6.040;2023-04-03T16:18:31;2.47;;;0.77;;
52530;SDS011;38441;52.894;6.040;2023-04-03T16:20:58;2.28;;;0.68;;